logo
Search for airport 
image banner adimage banner adimage banner ad
image banner ad

LOKU - Klagenfurt Ukh

Located in District Klagenfurt Stadt, Austria

ICAO - , IATA -

Data provided by Airmate  

General information

Coordinates: N46°37'5" E14°17'44"
Elevation is 1506 feet MSL.
 
View others Airports in Carinthia

Operational data

Special qualification required
Current time UTC:
Current local time:
Weather at : LOWK - Klagenfurt ( 4 km )
METAR: LOWK 202150Z AUTO VRB01KT 9999 FEW070 03/M02 Q1016
TAF: TAF LOWK 201715Z 2018/2118 VRB03KT 9999 FEW050 TX10/2113Z TN01/2104Z PROB30 TEMPO 2110/2118 SHRA FEW055CB SCT060
View NOTAMs / SUP AIP / TFR affecting this airport [VIEW]
Communications frequencies: [VIEW]

Runways:

Airport contact information

Address: District Klagenfurt Stadt Austria

Satellite view of LOKU